Time;durP1;ratioP1;P1;durP2;ratioP2;P2;SDS_P1;SDS_P2;PMS_P1;PMS_P2;Temp;Humidity;BMP_temperature;BMP_pressure;BME280_temperature;BME280_humidity;BME280_pressure;Samples;Min_cycle;Max_cycle;Signal;HPM_P1;HPM_P2
2022/09/06 00:00:23;;;;;;;5.93;2.75;;;18.30;99.90;;;17.56;100.00;97940.38;5022113;28;20067;-69
2022/09/06 00:02:50;;;;;;;4.10;3.08;;;18.40;99.90;;;17.47;100.00;97935.72;5019508;28;20433;-66
2022/09/06 00:05:17;;;;;;;3.53;2.80;;;18.40;99.90;;;17.54;100.00;97941.41;5020383;28;20068;-68
2022/09/06 00:07:44;;;;;;;6.43;3.00;;;18.40;99.90;;;17.49;100.00;97938.22;5015838;28;20083;-69
2022/09/06 00:10:12;;;;;;;2.92;2.42;;;18.40;99.90;;;17.65;100.00;97928.44;5017035;28;20049;-67
2022/09/06 00:12:40;;;;;;;4.88;2.90;;;18.40;99.90;;;17.76;100.00;97927.69;5021981;28;20055;-68
2022/09/06 00:15:08;;;;;;;5.60;2.70;;;18.40;99.90;;;17.50;100.00;97938.13;5021768;28;20546;-68
2022/09/06 00:17:35;;;;;;;4.65;2.80;;;18.40;99.90;;;17.54;100.00;97946.66;5021484;28;20136;-69
2022/09/06 00:20:04;;;;;;;5.25;2.78;;;18.50;99.90;;;17.25;100.00;97986.09;5018162;28;20043;-70
2022/09/06 00:22:31;;;;;;;6.68;2.08;;;18.40;99.90;;;18.49;100.00;98095.38;5022800;28;20052;-66
2022/09/06 00:24:58;;;;;;;9.35;2.17;;;18.60;99.90;;;19.50;100.00;98008.66;5023551;28;20434;-70
2022/09/06 00:27:25;;;;;;;4.40;2.20;;;19.40;99.90;;;19.43;100.00;98003.00;5021104;28;20494;-69
2022/09/06 00:29:52;;;;;;;12.50;2.70;;;19.90;99.90;;;19.33;100.00;98032.72;5038575;28;20055;-70
2022/09/06 00:32:19;;;;;;;6.43;2.03;;;19.90;99.90;;;19.25;100.00;98061.34;5022818;28;20136;-70
2022/09/06 00:34:45;;;;;;;6.00;1.88;;;19.90;99.90;;;19.20;100.00;98080.94;5023662;28;20061;-70
2022/09/06 00:37:13;;;;;;;5.50;2.08;;;19.80;99.90;;;19.05;100.00;98103.06;5022839;28;20132;-69
2022/09/06 00:39:40;;;;;;;8.77;2.08;;;19.70;99.90;;;18.75;100.00;98134.88;5025509;28;20049;-70
2022/09/06 00:42:12;;;;;;;7.30;1.98;;;19.50;99.90;;;18.69;100.00;98172.94;5023085;28;20060;-70
2022/09/06 00:44:39;;;;;;;7.18;1.80;;;19.20;99.90;;;18.14;100.00;98184.41;5006513;28;20124;-71
2022/09/06 00:47:07;;;;;;;4.25;2.03;;;18.80;99.90;;;17.81;100.00;98196.09;5020951;28;20758;-70
2022/09/06 00:49:43;;;;;;;6.80;2.17;;;18.50;99.90;;;17.73;100.00;98214.09;5036292;28;20148;-71
2022/09/06 00:52:14;;;;;;;5.60;2.40;;;18.20;99.90;;;17.61;100.00;98225.31;5017220;28;20045;-71
2022/09/06 00:54:42;;;;;;;9.38;2.67;;;18.00;99.90;;;17.41;100.00;98237.03;5022187;28;20132;-71
2022/09/06 00:57:10;;;;;;;5.35;2.38;;;17.90;99.90;;;17.27;100.00;98238.72;5034799;28;20060;-72
2022/09/06 00:59:39;;;;;;;9.07;3.08;;;17.80;99.90;;;17.22;100.00;98234.66;5023952;28;20049;-70
2022/09/06 01:02:08;;;;;;;7.97;3.15;;;17.60;99.90;;;17.13;100.00;98242.16;5036004;28;20049;-70
2022/09/06 01:04:39;;;;;;;5.18;3.00;;;17.60;99.90;;;17.06;100.00;98258.31;5019871;28;20076;-70
2022/09/06 01:07:38;;;;;;;6.07;2.53;;;17.50;99.90;;;16.99;100.00;98260.47;5021938;28;20041;-71
2022/09/06 01:10:47;;;;;;;7.05;2.90;;;17.40;99.90;;;16.93;100.00;98237.22;5023217;28;20495;-71
2022/09/06 01:13:50;;;;;;;9.00;4.15;;;17.40;99.90;;;16.85;100.00;98221.91;5021122;28;20139;-70
2022/09/06 01:16:52;;;;;;;8.07;3.30;;;17.30;99.90;;;16.82;100.00;98244.84;5021416;28;20169;-70
2022/09/06 01:19:47;;;;;;;6.20;3.17;;;17.20;99.90;;;16.84;100.00;98256.09;5017237;28;20050;-71
2022/09/06 01:22:50;;;;;;;8.07;3.58;;;17.20;99.90;;;16.86;100.00;98290.94;5020995;28;20125;-71
2022/09/06 01:25:32;;;;;;;11.20;3.53;;;17.30;99.90;;;16.92;100.00;98319.41;5023963;28;20531;-71
2022/09/06 01:28:23;;;;;;;9.07;3.20;;;17.30;99.90;;;16.94;100.00;98328.06;5036318;28;20041;-71
2022/09/06 01:31:01;;;;;;;7.35;3.33;;;17.30;99.90;;;16.88;100.00;98324.00;5023361;28;20435;-71
2022/09/06 01:33:37;;;;;;;7.43;3.30;;;17.30;99.90;;;16.83;100.00;98338.28;5021177;28;20053;-71
2022/09/06 01:36:12;;;;;;;6.70;2.95;;;17.30;99.90;;;16.87;100.00;98361.63;5013522;28;20041;-71
2022/09/06 01:38:39;;;;;;;7.40;3.00;;;17.30;99.90;;;16.89;100.00;98362.41;5019726;28;20046;-70
2022/09/06 01:41:06;;;;;;;5.38;3.22;;;17.30;99.90;;;16.91;100.00;98372.81;5020367;28;20125;-71
2022/09/06 01:43:40;;;;;;;11.27;3.85;;;17.40;99.90;;;16.95;100.00;98387.44;5021724;28;20507;-71
2022/09/06 01:46:37;;;;;;;9.38;4.53;;;17.40;99.90;;;16.88;100.00;98370.38;5002315;28;20813;-72
2022/09/06 01:49:49;;;;;;;6.13;3.78;;;17.30;99.90;;;16.83;100.00;98365.38;5002036;28;20050;-68
2022/09/06 01:52:42;;;;;;;8.05;3.20;;;17.30;99.90;;;16.80;100.00;98370.78;5009387;28;20183;-67
2022/09/06 01:55:39;;;;;;;5.65;2.75;;;17.30;99.90;;;16.79;100.00;98374.34;5018780;28;20132;-68
2022/09/06 01:58:55;;;;;;;6.57;3.08;;;17.30;99.90;;;16.82;100.00;98384.66;5021873;28;20452;-69
2022/09/06 02:01:36;;;;;;;5.22;2.53;;;17.20;99.90;;;16.82;100.00;98357.59;5020968;28;20050;-69
2022/09/06 02:04:22;;;;;;;5.40;2.20;;;17.30;99.90;;;16.81;100.00;98369.88;5021416;28;20135;-68
2022/09/06 02:07:03;;;;;;;4.93;2.15;;;17.30;99.90;;;16.88;100.00;98383.47;5019610;28;20052;-68
2022/09/06 02:09:39;;;;;;;6.28;2.63;;;17.30;99.90;;;16.86;100.00;98390.59;5019962;28;20050;-68
2022/09/06 02:12:13;;;;;;;4.80;1.75;;;17.30;99.90;;;16.94;100.00;98404.09;5021321;28;20132;-70
2022/09/06 02:14:52;;;;;;;4.63;1.80;;;17.30;99.90;;;16.99;100.00;98407.34;5022716;28;20049;-70
2022/09/06 02:17:26;;;;;;;4.10;2.03;;;17.30;99.90;;;17.03;100.00;98410.63;5019567;28;20749;-70
2022/09/06 02:20:01;;;;;;;4.78;1.90;;;17.40;99.90;;;16.98;100.00;98404.78;5022593;28;20475;-69
2022/09/06 02:22:35;;;;;;;4.65;1.70;;;17.40;99.90;;;16.98;100.00;98410.03;5035817;28;20536;-68
2022/09/06 02:25:07;;;;;;;4.95;2.08;;;17.40;99.90;;;16.93;100.00;98403.25;5023373;28;20747;-67
2022/09/06 02:27:34;;;;;;;4.88;1.85;;;17.40;99.90;;;16.90;100.00;98392.09;5022616;28;20049;-68
2022/09/06 02:30:03;;;;;;;3.97;1.77;;;17.40;99.90;;;16.88;100.00;98391.34;5021068;28;20076;-68
2022/09/06 02:32:38;;;;;;;7.05;2.15;;;17.20;99.90;;;16.93;100.00;98391.94;5025710;28;20125;-67
2022/09/06 02:35:14;;;;;;;4.13;1.80;;;17.20;99.90;;;16.81;100.00;98400.47;5022520;28;20100;-68
2022/09/06 02:37:43;;;;;;;4.43;1.88;;;17.20;99.90;;;16.69;100.00;98388.84;5040441;28;20049;-68
2022/09/06 02:40:11;;;;;;;5.38;2.15;;;17.20;99.90;;;16.61;100.00;98386.66;5020323;28;20046;-68
2022/09/06 02:42:41;;;;;;;3.35;1.58;;;17.10;99.90;;;16.51;100.00;98370.59;5024144;28;20429;-69
2022/09/06 02:45:08;;;;;;;7.25;2.10;;;17.10;99.90;;;16.52;100.00;98374.03;5026328;28;20037;-69
2022/09/06 02:47:35;;;;;;;5.20;2.15;;;17.00;99.90;;;16.50;100.00;98374.13;5023992;28;20051;-68
2022/09/06 02:50:03;;;;;;;5.18;1.48;;;;;;;16.52;100.00;98374.88;5025845;28;20069;-69
2022/09/06 02:52:30;;;;;;;5.00;2.38;;;;;;;16.24;100.00;98356.34;5023884;28;20050;-70
2022/09/06 02:54:57;;;;;;;7.05;2.80;;;;;;;16.13;100.00;98348.22;5025460;28;20042;-69
2022/09/06 02:57:25;;;;;;;4.85;2.60;;;;;;;15.92;100.00;98352.78;5025493;28;20053;-69
2022/09/06 02:59:52;;;;;;;5.22;2.63;;;;;;;15.95;100.00;98357.88;5026824;28;20689;-70
2022/09/06 03:02:20;;;;;;;10.30;3.03;;;;;;;15.85;100.00;98365.31;5038412;28;20065;-70
2022/09/06 03:04:47;;;;;;;4.88;2.28;;;;;;;15.97;100.00;98125.59;5025573;28;20438;-68
2022/09/06 03:07:15;;;;;;;6.15;3.50;;;;;;;15.90;100.00;98127.72;5023481;28;20161;-69
2022/09/06 03:09:42;;;;;;;6.38;2.53;;;;;;;15.97;100.00;98128.22;5022141;28;20049;-68
2022/09/06 03:12:09;;;;;;;6.63;3.50;;;;;;;15.95;100.00;98125.69;5023787;28;20045;-70
2022/09/06 03:14:36;;;;;;;8.95;4.10;;;;;;;15.83;100.00;98129.84;5024999;28;20049;-69
2022/09/06 03:17:04;;;;;;;7.75;4.45;;;;;;;15.74;100.00;98126.88;5022000;28;20065;-69
2022/09/06 03:19:31;;;;;;;10.35;4.43;;;;;;;15.65;100.00;98126.41;5024370;28;20513;-69
2022/09/06 03:21:58;;;;;;;10.80;4.28;;;16.50;99.90;;;15.60;100.00;98098.78;5025243;28;20590;-69
2022/09/06 03:24:25;;;;;;;9.55;5.15;;;16.50;99.90;;;15.55;100.00;98111.28;5024222;28;20045;-68
2022/09/06 03:26:52;;;;;;;7.90;4.35;;;16.50;99.90;;;15.54;100.00;98122.69;5025602;28;20128;-70
2022/09/06 03:29:19;;;;;;;7.22;4.00;;;16.40;99.90;;;15.53;100.00;98132.31;5026473;28;20042;-69
2022/09/06 03:31:46;;;;;;;4.65;3.47;;;16.40;99.90;;;15.60;100.00;98138.91;5021634;28;20401;-69
2022/09/06 03:34:13;;;;;;;7.38;4.30;;;16.30;99.90;;;15.71;100.00;98150.59;5025780;28;20142;-68
2022/09/06 03:36:40;;;;;;;9.07;4.60;;;16.30;99.90;;;15.62;100.00;98146.66;5025055;28;20109;-68
2022/09/06 03:39:07;;;;;;;9.10;4.85;;;16.30;99.90;;;15.55;100.00;98151.38;5024967;28;20101;-69
2022/09/06 03:41:34;;;;;;;6.20;4.47;;;16.30;99.90;;;15.59;100.00;98154.69;5023721;28;20490;-69
2022/09/06 03:44:01;;;;;;;6.95;4.07;;;16.30;99.90;;;15.61;100.00;98147.59;5023302;28;20053;-69
2022/09/06 03:46:29;;;;;;;9.32;3.70;;;16.30;99.90;;;15.67;100.00;98158.59;5019509;28;20045;-69
2022/09/06 03:48:57;;;;;;;7.43;5.03;;;16.30;99.90;;;15.55;100.00;98164.44;5021660;28;20046;-69
2022/09/06 03:51:25;;;;;;;7.00;5.13;;;16.30;99.90;;;15.39;100.00;98156.56;5018980;28;20079;-68
2022/09/06 03:53:52;;;;;;;9.70;4.93;;;16.30;99.90;;;15.37;100.00;98154.97;5019319;28;20046;-70
2022/09/06 03:56:19;;;;;;;8.10;4.18;;;16.20;99.90;;;15.52;100.00;98171.63;5024366;28;20543;-69
2022/09/06 03:58:46;;;;;;;9.07;5.32;;;16.20;99.90;;;15.41;100.00;98148.66;4999275;28;20077;-67
2022/09/06 04:01:13;;;;;;;6.72;4.35;;;;;;;15.30;100.00;98156.22;5023840;28;20047;-68
2022/09/06 04:03:40;;;;;;;9.02;5.70;;;16.10;99.90;;;15.26;100.00;98152.94;5024811;28;20385;-67
2022/09/06 04:06:08;;;;;;;7.25;4.97;;;16.00;99.90;;;15.35;100.00;98146.34;5024938;28;20072;-69
2022/09/06 04:08:37;;;;;;;5.97;4.45;;;16.10;99.90;;;15.46;100.00;98146.63;5021503;28;20588;-69
2022/09/06 04:11:05;;;;;;;9.40;4.70;;;16.10;99.90;;;15.36;100.00;98150.69;5019402;28;20180;-69
2022/09/06 04:13:34;;;;;;;7.50;5.13;;;16.10;99.90;;;15.27;100.00;98150.22;5020529;28;20049;-69
2022/09/06 04:16:02;;;;;;;9.07;6.05;;;16.10;99.90;;;15.15;100.00;98101.19;5022350;28;20052;-70
2022/09/06 04:18:29;;;;;;;9.40;5.38;;;16.00;99.90;;;15.05;100.00;98103.44;5017584;28;20110;-70
2022/09/06 04:20:56;;;;;;;8.80;4.50;;;16.00;99.90;;;15.09;100.00;98098.88;5024495;28;20071;-69
2022/09/06 04:23:26;;;;;;;7.88;4.63;;;15.90;99.90;;;15.27;100.00;98107.53;5037513;28;20522;-69
2022/09/06 04:25:55;;;;;;;9.45;6.22;;;15.80;99.90;;;15.18;100.00;98111.47;5023588;28;20052;-70
2022/09/06 04:28:25;;;;;;;10.00;6.95;;;15.80;99.90;;;15.14;100.00;98103.88;5020507;28;20128;-69
2022/09/06 04:30:58;;;;;;;7.47;3.35;;;15.80;99.90;;;15.31;100.00;98111.69;5020937;28;20073;-70
2022/09/06 04:33:33;;;;;;;5.53;4.05;;;15.80;99.90;;;15.36;100.00;98114.06;5039126;28;20057;-70
2022/09/06 04:36:02;;;;;;;8.77;4.88;;;15.80;99.90;;;15.22;100.00;98118.25;5025678;28;20088;-70
2022/09/06 04:38:34;;;;;;;7.50;4.82;;;15.90;99.90;;;15.10;100.00;98111.06;5021524;28;20142;-71
2022/09/06 04:41:02;;;;;;;8.15;4.95;;;15.80;99.90;;;14.97;100.00;98105.59;5024251;28;20156;-70
2022/09/06 04:43:29;;;;;;;7.72;5.18;;;15.80;99.90;;;15.00;100.00;98094.97;5017320;28;20053;-70
2022/09/06 04:46:02;;;;;;;11.52;3.72;;;15.70;99.90;;;15.16;100.00;98102.03;5026190;28;20046;-71
2022/09/06 04:48:29;;;;;;;8.45;4.85;;;15.70;99.90;;;15.19;100.00;98102.72;5024124;28;20092;-69
2022/09/06 04:50:56;;;;;;;7.20;4.38;;;15.70;99.90;;;15.18;100.00;98093.19;5024277;28;20088;-70
2022/09/06 04:53:23;;;;;;;10.10;6.88;;;15.80;99.90;;;15.06;100.00;98084.22;5038653;28;20578;-70
2022/09/06 04:55:50;;;;;;;7.13;5.32;;;15.80;99.90;;;15.05;100.00;98074.69;5020829;28;20151;-68
2022/09/06 04:58:17;;;;;;;6.50;4.90;;;15.70;99.90;;;15.00;100.00;98074.06;5022155;28;20136;-68
2022/09/06 05:00:44;;;;;;;9.23;5.53;;;15.70;99.90;;;15.01;100.00;98077.56;5021372;28;20120;-69
2022/09/06 05:03:11;;;;;;;9.70;5.07;;;15.70;99.90;;;14.88;100.00;98071.28;5021404;28;20638;-69
2022/09/06 05:05:38;;;;;;;8.57;6.28;;;15.70;99.90;;;14.77;100.00;98070.03;5021043;28;20046;-69
2022/09/06 05:08:05;;;;;;;7.55;5.38;;;15.60;99.90;;;14.73;100.00;98065.91;5018173;28;20094;-68
2022/09/06 05:10:32;;;;;;;7.22;4.80;;;15.60;99.90;;;14.62;100.00;98073.47;5023316;28;20384;-68
2022/09/06 05:12:59;;;;;;;7.25;5.10;;;15.50;99.90;;;14.61;100.00;98082.22;5025111;28;20064;-68
2022/09/06 05:15:26;;;;;;;8.30;5.30;;;15.50;99.90;;;14.65;100.00;98083.75;5026258;28;20422;-68
2022/09/06 05:18:02;;;;;;;10.25;7.38;;;15.50;99.90;;;14.61;100.00;98085.66;5023491;28;20570;-69
2022/09/06 05:20:30;;;;;;;12.77;9.18;;;15.50;99.90;;;14.55;100.00;98096.44;5024338;28;20132;-69
2022/09/06 05:22:58;;;;;;;17.70;11.25;;;15.50;99.90;;;14.54;100.00;98086.91;5022381;28;20052;-69
2022/09/06 05:25:25;;;;;;;10.93;8.52;;;15.50;99.90;;;14.55;100.00;98096.44;5040824;28;20076;-68
2022/09/06 05:27:52;;;;;;;11.02;8.07;;;15.50;99.90;;;14.67;100.00;98092.34;5024664;28;20128;-68
2022/09/06 05:30:19;;;;;;;9.90;7.95;;;15.40;99.90;;;14.66;100.00;98103.72;5023793;28;20068;-68
2022/09/06 05:32:46;;;;;;;9.55;6.40;;;15.40;99.90;;;14.66;100.00;98100.25;5023539;28;20115;-69
2022/09/06 05:35:13;;;;;;;10.80;7.70;;;15.50;99.90;;;14.71;100.00;98087.81;5022148;28;20483;-69
2022/09/06 05:37:40;;;;;;;10.93;6.38;;;15.50;99.90;;;14.75;100.00;98084.13;5022455;28;20136;-69
2022/09/06 05:40:08;;;;;;;8.45;5.47;;;15.60;99.90;;;14.81;100.00;98089.03;5040705;28;20061;-69
2022/09/06 05:42:35;;;;;;;6.53;3.60;;;15.60;99.90;;;14.99;100.00;98090.69;5024090;28;20076;-68
2022/09/06 05:45:02;;;;;;;6.15;4.00;;;15.70;99.90;;;15.27;100.00;98097.91;5024508;28;20172;-69
2022/09/06 05:47:33;;;;;;;5.03;3.25;;;15.90;99.90;;;15.44;100.00;98091.78;5025105;28;20046;-69
2022/09/06 05:50:01;;;;;;;6.57;3.83;;;16.10;99.90;;;15.63;100.00;98086.41;5026129;28;20143;-69
2022/09/06 05:52:28;;;;;;;5.40;3.83;;;16.20;99.90;;;15.64;100.00;98077.59;5023096;28;20460;-68
2022/09/06 05:54:55;;;;;;;5.95;4.22;;;16.30;99.90;;;15.77;100.00;98071.75;5028461;28;20049;-68
2022/09/06 05:57:22;;;;;;;4.13;3.13;;;16.40;99.90;;;15.92;100.00;98065.66;5042709;28;20054;-69
2022/09/06 05:59:49;;;;;;;6.15;3.60;;;16.50;99.90;;;15.91;100.00;98055.25;5024365;28;20048;-69
2022/09/06 06:02:16;;;;;;;3.90;3.20;;;16.60;99.90;;;16.07;100.00;98058.69;5028565;28;20064;-69
2022/09/06 06:04:43;;;;;;;3.67;2.65;;;16.70;99.90;;;16.02;100.00;98058.09;5027330;28;20069;-68
2022/09/06 06:07:10;;;;;;;5.28;3.55;;;16.80;99.90;;;16.17;100.00;98059.84;5022841;28;20403;-68
2022/09/06 06:09:37;;;;;;;4.68;2.95;;;16.90;99.90;;;16.23;100.00;98054.25;5029628;28;20718;-70
2022/09/06 06:12:05;;;;;;;5.85;3.08;;;17.00;99.90;;;16.39;100.00;98077.78;5029344;28;20695;-68
2022/09/06 06:14:32;;;;;;;5.85;3.47;;;17.10;99.90;;;16.32;100.00;98089.56;5027714;28;20115;-69
2022/09/06 06:16:59;;;;;;;9.88;3.80;;;17.20;99.90;;;16.06;100.00;98088.44;5025023;28;20041;-68
2022/09/06 06:19:26;;;;;;;7.93;4.65;;;17.20;99.90;;;15.96;100.00;98079.41;5027440;28;20550;-68
2022/09/06 06:21:55;;;;;;;6.15;3.53;;;17.10;99.90;;;16.13;100.00;98071.44;5028690;28;20912;-69
2022/09/06 06:24:22;;;;;;;7.63;3.80;;;17.10;99.90;;;16.10;100.00;98080.31;5027727;28;20575;-67
2022/09/06 06:26:49;;;;;;;8.50;4.45;;;17.10;99.90;;;15.99;100.00;98081.84;5026173;28;20051;-69
2022/09/06 06:29:16;;;;;;;6.00;4.78;;;17.10;99.90;;;15.99;100.00;98079.25;5022533;28;20215;-68
2022/09/06 06:31:43;;;;;;;6.82;3.70;;;17.20;99.90;;;16.14;100.00;98080.97;5028304;28;20136;-68
2022/09/06 06:34:10;;;;;;;7.18;3.95;;;17.20;99.90;;;16.14;100.00;98082.75;5022829;28;20140;-69
2022/09/06 06:36:37;;;;;;;6.68;3.92;;;17.20;99.90;;;16.20;100.00;98075.38;5028581;28;20168;-69
2022/09/06 06:39:07;;;;;;;5.20;3.58;;;17.30;99.90;;;16.38;100.00;98080.50;5042181;28;20055;-68
2022/09/06 06:41:34;;;;;;;6.45;4.32;;;17.30;99.90;;;16.39;100.00;98092.66;5028052;28;20527;-68
2022/09/06 06:44:03;;;;;;;8.73;3.88;;;17.40;99.90;;;16.44;100.00;98080.97;5044109;28;20118;-68
2022/09/06 06:46:34;;;;;;;6.72;3.22;;;17.50;99.90;;;16.58;100.00;98089.81;5023841;28;20079;-69
2022/09/06 06:49:01;;;;;;;5.70;4.10;;;17.50;99.90;;;16.60;100.00;98091.38;5027687;28;20079;-69
2022/09/06 06:51:31;;;;;;;4.90;3.78;;;17.70;99.90;;;16.82;100.00;98091.00;5026824;28;20487;-68
2022/09/06 06:53:58;;;;;;;5.13;3.47;;;17.80;99.90;;;17.02;100.00;98086.34;5026869;28;20132;-69
2022/09/06 06:56:36;;;;;;;9.48;4.43;;;17.90;99.90;;;17.06;100.00;98095.69;5027883;28;20080;-68
2022/09/06 06:59:06;;;;;;;6.03;3.70;;;18.00;99.90;;;17.03;100.00;98107.22;5025163;28;20057;-68
2022/09/06 07:01:34;;;;;;;7.68;3.03;;;18.10;99.90;;;17.20;100.00;98105.38;5026056;28;20128;-69
2022/09/06 07:04:03;;;;;;;5.43;3.47;;;18.20;99.90;;;17.07;100.00;98115.75;5028653;28;20048;-69
2022/09/06 07:06:30;;;;;;;4.55;3.33;;;18.20;99.90;;;17.20;100.00;98111.47;5023029;28;20058;-69
2022/09/06 07:09:19;;;;;;;6.28;3.15;;;18.20;99.90;;;17.43;100.00;98119.72;5028718;28;20053;-68
2022/09/06 07:11:47;;;;;;;5.43;3.10;;;18.20;99.90;;;17.51;100.00;98126.13;5028073;28;20059;-68
2022/09/06 07:14:18;;;;;;;5.22;2.97;;;18.20;99.90;;;17.38;100.00;98120.00;5027800;28;20096;-69
2022/09/06 07:16:45;;;;;;;5.75;3.25;;;18.30;99.90;;;17.27;100.00;98122.44;5028445;28;20154;-66
2022/09/06 07:19:12;;;;;;;6.13;3.50;;;18.30;99.90;;;17.14;100.00;98122.31;5027860;28;20060;-70
2022/09/06 07:21:59;;;;;;;4.85;3.35;;;18.20;99.90;;;17.18;100.00;98112.50;5024840;28;20503;-70
2022/09/06 07:24:31;;;;;;;4.85;3.33;;;18.30;99.90;;;17.40;100.00;98107.59;5027681;28;20053;-70
2022/09/06 07:26:58;;;;;;;5.50;3.53;;;18.40;99.90;;;17.58;100.00;98116.09;5026380;28;20185;-69
2022/09/06 07:29:45;;;;;;;4.85;3.03;;;18.50;99.90;;;17.65;100.00;98119.19;5027393;28;20136;-70
2022/09/06 07:32:12;;;;;;;5.25;3.10;;;18.70;99.90;;;17.75;100.00;98120.31;5026945;28;20057;-70
2022/09/06 07:34:39;;;;;;;7.20;3.00;;;18.80;99.90;;;17.93;100.00;98113.94;5026340;28;20471;-70
2022/09/06 07:37:06;;;;;;;7.70;3.15;;;19.10;99.90;;;18.21;100.00;98127.91;5027226;28;20144;-69
2022/09/06 07:39:35;;;;;;;6.45;3.25;;;19.20;99.90;;;18.42;100.00;98146.69;5027795;28;20556;-68
2022/09/06 07:42:03;;;;;;;6.43;2.85;;;19.40;99.90;;;18.68;100.00;98152.00;5024850;28;20148;-70
2022/09/06 07:44:30;;;;;;;7.50;2.90;;;19.60;99.90;;;18.80;100.00;98153.84;5039199;28;20080;-70
2022/09/06 07:46:57;;;;;;;6.03;3.05;;;19.80;99.90;;;19.04;100.00;98146.09;5025870;28;20582;-69
2022/09/06 07:49:44;;;;;;;8.93;3.05;;;19.90;99.90;;;19.27;100.00;98141.03;5028897;28;20045;-70
2022/09/06 07:52:31;;;;;;;6.85;3.20;;;20.20;99.90;;;19.50;100.00;98135.03;5027019;28;20053;-70
2022/09/06 07:55:18;;;;;;;8.27;3.08;;;20.40;99.90;;;19.56;100.00;98117.94;5028150;28;20091;-69
2022/09/06 07:57:45;;;;;;;7.05;3.00;;;20.50;99.90;;;19.77;100.00;98105.91;5028747;28;20053;-70
2022/09/06 08:00:12;;;;;;;6.60;2.85;;;20.70;99.90;;;20.13;100.00;98091.03;5028153;28;20057;-70
2022/09/06 08:02:39;;;;;;;4.03;2.15;;;21.00;99.90;;;20.24;100.00;98077.91;5027707;28;20045;-71
2022/09/06 08:05:07;;;;;;;4.90;2.40;;;21.40;99.90;;;20.75;100.00;98046.91;5028435;28;20080;-69
2022/09/06 08:07:54;;;;;;;2.85;1.80;;;21.90;99.90;;;21.06;100.00;98019.81;5026486;28;20049;-68
2022/09/06 08:10:41;;;;;;;3.92;1.67;;;22.50;99.90;;;21.46;100.00;97981.50;5027031;28;20056;-67
2022/09/06 08:13:08;;;;;;;5.60;2.13;;;22.90;99.90;;;21.68;100.00;97941.81;5023878;28;20132;-68
2022/09/06 08:15:35;;;;;;;4.65;1.73;;;23.10;99.90;;;22.32;100.00;97887.19;5028461;28;20053;-68
2022/09/06 08:18:01;;;;;;;4.53;1.50;;;23.20;99.90;;;22.96;100.00;97855.09;5027712;28;20049;-68
2022/09/06 08:20:28;;;;;;;2.22;1.45;;;23.50;99.90;;;23.27;100.00;97794.13;5027702;28;20551;-68
2022/09/06 08:22:55;;;;;;;5.07;1.40;;;23.80;99.90;;;23.25;100.00;97752.88;5026147;28;20418;-68
2022/09/06 08:25:22;;;;;;;3.85;1.60;;;23.90;99.90;;;22.92;100.00;97741.69;5025154;28;20387;-68
2022/09/06 08:27:49;;;;;;;5.07;1.40;;;24.00;99.90;;;22.68;100.00;97747.41;5024100;28;20049;-68
2022/09/06 08:30:16;;;;;;;4.30;1.77;;;23.90;99.90;;;22.34;100.00;97753.03;5025842;28;20057;-68
2022/09/06 08:32:43;;;;;;;3.22;1.20;;;23.80;99.90;;;22.98;100.00;97736.69;5021002;28;20107;-67
2022/09/06 08:35:10;;;;;;;3.25;1.45;;;23.80;99.90;;;22.78;100.00;97727.06;5025639;28;20045;-67
2022/09/06 08:37:37;;;;;;;6.50;1.48;;;23.80;99.90;;;22.50;100.00;97723.41;5023512;28;20505;-69
2022/09/06 08:40:05;;;;;;;3.78;1.30;;;23.70;99.90;;;22.77;100.00;97714.81;5026743;28;20144;-69
2022/09/06 08:42:31;;;;;;;5.22;1.70;;;23.90;99.90;;;22.72;100.00;97695.88;5025454;28;20100;-68
2022/09/06 08:45:02;;;;;;;2.35;1.30;;;24.00;99.90;;;23.18;100.00;97679.28;5017616;28;20050;-68
2022/09/06 08:47:29;;;;;;;7.10;1.88;;;24.40;99.90;;;23.39;100.00;97673.81;5025139;28;20055;-69
2022/09/06 08:50:03;;;;;;;3.38;1.27;;;24.70;99.90;;;23.80;100.00;97665.59;5026175;28;20594;-68
2022/09/06 08:53:07;;;;;;;5.00;1.50;;;25.20;99.90;;;24.10;100.00;97653.03;5018477;28;20071;-68
2022/09/06 08:56:16;;;;;;;3.40;1.25;;;25.50;99.90;;;24.43;100.00;97638.31;5026131;28;20064;-68
2022/09/06 08:59:05;;;;;;;2.58;1.00;;;25.60;99.90;;;24.69;100.00;97619.00;5021793;28;20115;-68
2022/09/06 09:02:08;;;;;;;4.03;1.10;;;25.80;99.90;;;24.56;100.00;97603.44;5025222;28;20041;-68
2022/09/06 09:04:52;;;;;;;5.80;1.10;;;25.70;99.90;;;24.36;100.00;97623.97;5024379;28;20936;-69
2022/09/06 09:07:38;;;;;;;3.03;1.00;;;25.70;99.90;;;24.60;100.00;97610.94;5037322;28;20660;-69
2022/09/06 09:10:15;;;;;;;5.10;1.20;;;26.00;99.90;;;24.11;100.00;97615.78;5026263;28;20140;-69
2022/09/06 09:12:47;;;;;;;3.45;1.33;;;26.30;99.90;;;24.40;100.00;97626.19;5021980;28;20546;-68
2022/09/06 09:15:19;;;;;;;5.70;1.30;;;26.40;99.90;;;24.93;100.00;97618.34;5022375;28;20099;-69
2022/09/06 09:17:51;;;;;;;2.72;1.10;;;26.70;99.90;;;24.50;100.00;97614.69;5021028;28;20136;-69
2022/09/06 09:20:19;;;;;;;4.60;1.50;;;26.80;99.90;;;25.04;100.00;97605.66;5025554;28;20511;-69
2022/09/06 09:22:46;;;;;;;3.17;1.33;;;26.50;99.90;;;25.33;100.00;97596.56;5021961;28;20518;-69
2022/09/06 09:25:23;;;;;;;5.38;1.10;;;26.50;99.90;;;25.17;100.00;97591.94;5023687;28;20045;-70
2022/09/06 09:27:56;;;;;;;4.40;1.00;;;26.60;99.90;;;24.83;100.00;97590.06;5021791;28;20187;-69
2022/09/06 09:30:26;;;;;;;4.13;1.27;;;26.70;99.90;;;25.02;100.00;97574.91;5025283;28;20052;-69
2022/09/06 09:33:40;;;;;;;6.82;1.35;;;27.00;99.90;;;24.90;100.00;97570.88;5023015;28;20566;-68
2022/09/06 09:36:12;;;;;;;10.30;1.10;;;27.10;99.90;;;24.97;100.00;97567.41;5024124;28;20049;-69
2022/09/06 09:38:45;;;;;;;4.57;1.10;;;27.30;99.90;;;25.77;100.00;97542.41;5022867;28;20056;-69
2022/09/06 09:41:32;;;;;;;7.30;1.20;;;27.50;99.90;;;25.96;100.00;97536.03;5020309;28;20514;-69
2022/09/06 09:44:08;;;;;;;5.25;1.40;;;27.60;99.90;;;25.68;100.00;97538.88;5021673;28;20533;-69
2022/09/06 09:46:38;;;;;;;8.38;1.27;;;27.60;99.90;;;25.29;100.00;97535.91;5026554;28;20150;-70
2022/09/06 09:49:27;;;;;;;3.40;1.00;;;27.70;99.90;;;26.24;100.00;97524.06;5025081;28;20052;-70
2022/09/06 09:52:11;;;;;;;4.15;1.20;;;27.80;99.90;;;26.44;100.00;97511.28;5023220;28;20046;-70
2022/09/06 09:54:43;;;;;;;4.55;1.30;;;28.00;99.90;;;26.58;100.00;97575.50;5023635;28;20141;-69
2022/09/06 09:57:13;;;;;;;;;;;28.00;99.90;;;26.53;100.00;97665.66;5022299;28;20077;-69
2022/09/06 09:59:59;;;;;;;3.45;1.00;;;28.10;99.90;;;26.07;100.00;97671.38;5023804;28;19944;-69
2022/09/06 10:02:34;;;;;;;4.18;1.02;;;28.20;99.90;;;26.44;100.00;97670.13;5024311;28;20057;-69
2022/09/06 10:05:19;;;;;;;8.52;1.20;;;28.30;99.90;;;26.78;100.00;97674.53;5015435;28;20692;-68
2022/09/06 10:07:55;;;;;;;3.10;0.80;;;28.20;99.90;;;27.24;100.00;97670.38;5023393;28;20053;-69
2022/09/06 10:10:24;;;;;;;3.60;1.00;;;28.60;99.90;;;25.96;100.00;97679.63;5022515;28;20053;-69
2022/09/06 10:13:15;;;;;;;4.93;0.90;;;29.00;99.90;;;26.53;100.00;97676.31;5023400;28;20274;-69
2022/09/06 10:15:42;;;;;;;2.83;0.80;;;29.10;99.90;;;27.11;100.00;97667.38;5025433;28;20132;-67
2022/09/06 10:18:39;;;;;;;5.35;1.20;;;29.00;99.90;;;26.85;100.00;97654.22;5024528;28;20041;-69
2022/09/06 10:21:16;;;;;;;3.35;0.90;;;29.00;99.90;;;28.05;100.00;97663.16;5025330;28;20216;-69
2022/09/06 10:24:09;;;;;;;3.95;0.73;;;29.70;99.90;;;28.19;100.00;97650.94;5022880;28;20055;-68
2022/09/06 10:27:03;;;;;;;3.60;0.90;;;30.30;99.90;;;28.40;100.00;97636.97;5025677;28;20099;-68
2022/09/06 10:29:51;;;;;;;5.47;1.00;;;30.40;99.90;;;28.94;100.00;97639.59;5022851;28;20057;-68
2022/09/06 10:32:40;;;;;;;2.45;0.70;;;30.70;99.90;;;28.50;100.00;97632.25;5039455;28;20148;-67
2022/09/06 10:35:22;;;;;;;3.67;0.90;;;30.50;99.90;;;28.97;100.00;97633.88;5023792;28;20042;-68
2022/09/06 10:38:39;;;;;;;5.75;0.73;;;30.60;99.90;;;27.85;100.00;97644.09;5020959;28;20139;-68